Aviation Digital Data Service (ADDS)

Output produced by METARs form (0806 UTC 20 March 2019)
found at http://www.aviationweather.gov/metar/data/
 
METAR text: FAGM 200600Z 34010KT CAVOK 19/12 Q1022
Conditions at: FAGM (JOHANNESBURG/RAN, ZA) observed 0600 UTC 20 March 2019
Temperature: 19.0°C (66°F)
Dewpoint: 12.0°C (54°F) [RH = 64%]
Pressure (altimeter): 30.18 inches Hg (1022.0 mb)
Winds: from the NNW (340 degrees) at 12 MPH (10 knots; 5.1 m/s)
Visibility: 6 or more miles (10+ km)
Ceiling: ceiling and visibility are OK
Clouds: unknown
Weather: no significant weather observed at this time

METAR text: FAGM 200400Z 36008KT CAVOK 17/13 Q1022
Conditions at: FAGM (JOHANNESBURG/RAN, ZA) observed 0400 UTC 20 March 2019
Temperature: 17.0°C (63°F)
Dewpoint: 13.0°C (55°F) [RH = 77%]
Pressure (altimeter): 30.18 inches Hg (1022.0 mb)
Winds: from the N (360 degrees) at 9 MPH (8 knots; 4.1 m/s)
Visibility: 6 or more miles (10+ km)
Ceiling: ceiling and visibility are OK
Clouds: unknown
Weather: no significant weather observed at this time